sensor_id;sensor_type;location;lat;lon;timestamp;temperature;humidity
3488;DHT22;38546;48.170;11.724;2024-01-07T00:02:20;1.40;99.90
3488;DHT22;38546;48.170;11.724;2024-01-07T00:05:10;1.40;99.90
3488;DHT22;38546;48.170;11.724;2024-01-07T00:07:58;1.40;99.90
3488;DHT22;38546;48.170;11.724;2024-01-07T00:10:48;1.40;99.90
3488;DHT22;38546;48.170;11.724;2024-01-07T00:13:37;1.30;99.90
3488;DHT22;38546;48.170;11.724;2024-01-07T00:16:25;1.40;99.90
3488;DHT22;38546;48.170;11.724;2024-01-07T00:19:14;1.40;99.90
3488;DHT22;38546;48.170;11.724;2024-01-07T00:22:04;1.30;99.90
3488;DHT22;38546;48.170;11.724;2024-01-07T00:24:53;1.30;99.90
3488;DHT22;38546;48.170;11.724;2024-01-07T00:27:42;1.30;99.90
3488;DHT22;38546;48.170;11.724;2024-01-07T00:30:31;1.30;99.90
3488;DHT22;38546;48.170;11.724;2024-01-07T00:33:20;1.20;99.90
3488;DHT22;38546;48.170;11.724;2024-01-07T00:36:09;1.30;99.90
3488;DHT22;38546;48.170;11.724;2024-01-07T00:38:58;1.30;99.90
3488;DHT22;38546;48.170;11.724;2024-01-07T00:41:47;1.20;99.90
3488;DHT22;38546;48.170;11.724;2024-01-07T00:44:37;1.30;99.90
3488;DHT22;38546;48.170;11.724;2024-01-07T00:47:26;1.30;99.90
3488;DHT22;38546;48.170;11.724;2024-01-07T00:50:16;1.40;99.90
3488;DHT22;38546;48.170;11.724;2024-01-07T00:53:05;1.30;99.90
3488;DHT22;38546;48.170;11.724;2024-01-07T00:55:54;1.30;99.90
3488;DHT22;38546;48.170;11.724;2024-01-07T00:58:43;1.20;99.90
3488;DHT22;38546;48.170;11.724;2024-01-07T01:01:32;1.20;99.90
3488;DHT22;38546;48.170;11.724;2024-01-07T01:04:22;1.20;99.90
3488;DHT22;38546;48.170;11.724;2024-01-07T01:07:11;1.20;99.90
3488;DHT22;38546;48.170;11.724;2024-01-07T01:10:01;1.20;99.90
3488;DHT22;38546;48.170;11.724;2024-01-07T01:12:51;1.20;99.90
3488;DHT22;38546;48.170;11.724;2024-01-07T01:15:42;1.20;99.90
3488;DHT22;38546;48.170;11.724;2024-01-07T01:18:31;1.20;99.90
3488;DHT22;38546;48.170;11.724;2024-01-07T01:21:20;1.20;99.90
3488;DHT22;38546;48.170;11.724;2024-01-07T01:24:10;1.20;99.90
3488;DHT22;38546;48.170;11.724;2024-01-07T01:27:00;1.20;99.90
3488;DHT22;38546;48.170;11.724;2024-01-07T01:29:49;1.20;99.90
3488;DHT22;38546;48.170;11.724;2024-01-07T01:32:38;1.20;99.90
3488;DHT22;38546;48.170;11.724;2024-01-07T01:35:28;1.20;99.90
3488;DHT22;38546;48.170;11.724;2024-01-07T01:38:17;1.20;99.90
3488;DHT22;38546;48.170;11.724;2024-01-07T01:41:06;1.10;99.90
3488;DHT22;38546;48.170;11.724;2024-01-07T01:44:00;1.20;99.90
3488;DHT22;38546;48.170;11.724;2024-01-07T01:46:50;1.20;99.90
3488;DHT22;38546;48.170;11.724;2024-01-07T01:49:40;1.10;99.90
3488;DHT22;38546;48.170;11.724;2024-01-07T01:52:30;1.10;99.90
3488;DHT22;38546;48.170;11.724;2024-01-07T01:55:20;1.20;99.90
3488;DHT22;38546;48.170;11.724;2024-01-07T01:58:10;1.30;99.90
3488;DHT22;38546;48.170;11.724;2024-01-07T02:01:03;1.20;99.90
3488;DHT22;38546;48.170;11.724;2024-01-07T02:03:52;1.10;99.90
3488;DHT22;38546;48.170;11.724;2024-01-07T02:06:45;1.20;99.90
3488;DHT22;38546;48.170;11.724;2024-01-07T02:09:35;1.10;99.90
3488;DHT22;38546;48.170;11.724;2024-01-07T02:12:24;1.10;99.90
3488;DHT22;38546;48.170;11.724;2024-01-07T02:15:13;1.20;99.90
3488;DHT22;38546;48.170;11.724;2024-01-07T02:18:03;1.20;99.90
3488;DHT22;38546;48.170;11.724;2024-01-07T02:20:53;1.10;99.90
3488;DHT22;38546;48.170;11.724;2024-01-07T02:23:42;1.10;99.90
3488;DHT22;38546;48.170;11.724;2024-01-07T02:26:32;1.20;99.90
3488;DHT22;38546;48.170;11.724;2024-01-07T02:29:21;1.20;99.90
3488;DHT22;38546;48.170;11.724;2024-01-07T02:32:10;1.20;99.90
3488;DHT22;38546;48.170;11.724;2024-01-07T02:35:00;1.10;99.90
3488;DHT22;38546;48.170;11.724;2024-01-07T02:37:50;1.10;99.90
3488;DHT22;38546;48.170;11.724;2024-01-07T02:40:39;1.10;99.90
3488;DHT22;38546;48.170;11.724;2024-01-07T02:43:28;1.10;99.90
3488;DHT22;38546;48.170;11.724;2024-01-07T02:46:17;1.20;99.90
3488;DHT22;38546;48.170;11.724;2024-01-07T02:49:08;1.20;99.90
3488;DHT22;38546;48.170;11.724;2024-01-07T02:51:57;1.20;99.90
3488;DHT22;38546;48.170;11.724;2024-01-07T02:54:46;1.20;99.90
3488;DHT22;38546;48.170;11.724;2024-01-07T02:57:35;1.20;99.90
3488;DHT22;38546;48.170;11.724;2024-01-07T03:00:24;1.20;99.90
3488;DHT22;38546;48.170;11.724;2024-01-07T03:03:13;1.20;99.90
3488;DHT22;38546;48.170;11.724;2024-01-07T03:06:03;1.20;99.90
3488;DHT22;38546;48.170;11.724;2024-01-07T03:08:52;1.20;99.90
3488;DHT22;38546;48.170;11.724;2024-01-07T03:11:41;1.20;99.90
3488;DHT22;38546;48.170;11.724;2024-01-07T03:14:31;1.10;99.90
3488;DHT22;38546;48.170;11.724;2024-01-07T03:17:20;1.20;99.90
3488;DHT22;38546;48.170;11.724;2024-01-07T03:20:11;1.10;99.90
3488;DHT22;38546;48.170;11.724;2024-01-07T03:23:01;1.20;99.90
3488;DHT22;38546;48.170;11.724;2024-01-07T03:25:50;1.20;99.90
3488;DHT22;38546;48.170;11.724;2024-01-07T03:28:39;1.20;99.90
3488;DHT22;38546;48.170;11.724;2024-01-07T03:31:29;1.30;99.90
3488;DHT22;38546;48.170;11.724;2024-01-07T03:34:19;1.20;99.90
3488;DHT22;38546;48.170;11.724;2024-01-07T03:37:09;1.10;99.90
3488;DHT22;38546;48.170;11.724;2024-01-07T03:39:59;1.10;99.90
3488;DHT22;38546;48.170;11.724;2024-01-07T03:42:48;1.20;99.90
3488;DHT22;38546;48.170;11.724;2024-01-07T03:45:37;1.10;99.90
3488;DHT22;38546;48.170;11.724;2024-01-07T03:48:26;1.10;99.90
3488;DHT22;38546;48.170;11.724;2024-01-07T03:51:16;1.10;99.90
3488;DHT22;38546;48.170;11.724;2024-01-07T03:54:06;1.10;99.90
3488;DHT22;38546;48.170;11.724;2024-01-07T03:56:55;1.10;99.90
3488;DHT22;38546;48.170;11.724;2024-01-07T03:59:44;1.20;99.90
3488;DHT22;38546;48.170;11.724;2024-01-07T04:02:33;1.20;99.90
3488;DHT22;38546;48.170;11.724;2024-01-07T04:05:23;1.20;99.90
3488;DHT22;38546;48.170;11.724;2024-01-07T04:08:12;1.20;99.90
3488;DHT22;38546;48.170;11.724;2024-01-07T04:11:04;1.20;99.90
3488;DHT22;38546;48.170;11.724;2024-01-07T04:13:53;1.10;99.90
3488;DHT22;38546;48.170;11.724;2024-01-07T04:16:43;1.10;99.90
3488;DHT22;38546;48.170;11.724;2024-01-07T04:19:32;1.10;99.90
3488;DHT22;38546;48.170;11.724;2024-01-07T04:22:21;1.10;99.90
3488;DHT22;38546;48.170;11.724;2024-01-07T04:25:10;1.20;99.90
3488;DHT22;38546;48.170;11.724;2024-01-07T04:28:00;1.20;99.90
3488;DHT22;38546;48.170;11.724;2024-01-07T04:30:49;1.10;99.90
3488;DHT22;38546;48.170;11.724;2024-01-07T04:33:39;1.10;99.90
3488;DHT22;38546;48.170;11.724;2024-01-07T04:36:29;1.10;99.90
3488;DHT22;38546;48.170;11.724;2024-01-07T04:39:18;1.10;99.90
3488;DHT22;38546;48.170;11.724;2024-01-07T04:42:07;1.10;99.90
3488;DHT22;38546;48.170;11.724;2024-01-07T04:44:57;1.20;99.90
3488;DHT22;38546;48.170;11.724;2024-01-07T04:47:46;1.20;99.90
3488;DHT22;38546;48.170;11.724;2024-01-07T04:50:36;1.20;99.90
3488;DHT22;38546;48.170;11.724;2024-01-07T04:53:26;1.10;99.90
3488;DHT22;38546;48.170;11.724;2024-01-07T04:56:15;1.10;99.90
3488;DHT22;38546;48.170;11.724;2024-01-07T04:59:04;1.10;99.90
3488;DHT22;38546;48.170;11.724;2024-01-07T05:01:54;1.10;99.90
3488;DHT22;38546;48.170;11.724;2024-01-07T05:04:43;1.10;99.90
3488;DHT22;38546;48.170;11.724;2024-01-07T05:07:32;1.00;99.90
3488;DHT22;38546;48.170;11.724;2024-01-07T05:10:22;1.00;99.90
3488;DHT22;38546;48.170;11.724;2024-01-07T05:13:11;1.00;99.90
3488;DHT22;38546;48.170;11.724;2024-01-07T05:16:00;1.10;99.90
3488;DHT22;38546;48.170;11.724;2024-01-07T05:18:49;1.10;99.90
3488;DHT22;38546;48.170;11.724;2024-01-07T05:21:39;1.10;99.90
3488;DHT22;38546;48.170;11.724;2024-01-07T05:24:28;1.10;99.90
3488;DHT22;38546;48.170;11.724;2024-01-07T05:27:18;1.10;99.90
3488;DHT22;38546;48.170;11.724;2024-01-07T05:30:07;1.20;99.90
3488;DHT22;38546;48.170;11.724;2024-01-07T05:32:56;1.10;99.90
3488;DHT22;38546;48.170;11.724;2024-01-07T05:35:46;1.10;99.90
3488;DHT22;38546;48.170;11.724;2024-01-07T05:38:35;1.10;99.90
3488;DHT22;38546;48.170;11.724;2024-01-07T05:41:24;1.00;99.90
3488;DHT22;38546;48.170;11.724;2024-01-07T05:44:13;1.10;99.90
3488;DHT22;38546;48.170;11.724;2024-01-07T05:47:03;1.00;99.90
3488;DHT22;38546;48.170;11.724;2024-01-07T05:49:53;1.00;99.90
3488;DHT22;38546;48.170;11.724;2024-01-07T05:52:42;1.00;99.90
3488;DHT22;38546;48.170;11.724;2024-01-07T05:55:33;1.10;99.90
3488;DHT22;38546;48.170;11.724;2024-01-07T05:58:22;1.10;99.90
3488;DHT22;38546;48.170;11.724;2024-01-07T06:01:17;1.20;99.90
3488;DHT22;38546;48.170;11.724;2024-01-07T06:04:08;1.20;99.90
3488;DHT22;38546;48.170;11.724;2024-01-07T06:06:58;1.20;99.90
3488;DHT22;38546;48.170;11.724;2024-01-07T06:09:47;1.20;99.90
3488;DHT22;38546;48.170;11.724;2024-01-07T06:12:37;1.20;99.90
3488;DHT22;38546;48.170;11.724;2024-01-07T06:15:26;1.20;99.90
3488;DHT22;38546;48.170;11.724;2024-01-07T06:18:16;1.30;99.90
3488;DHT22;38546;48.170;11.724;2024-01-07T06:21:05;1.30;99.90
3488;DHT22;38546;48.170;11.724;2024-01-07T06:23:54;1.20;99.90
3488;DHT22;38546;48.170;11.724;2024-01-07T06:26:43;1.20;99.90
3488;DHT22;38546;48.170;11.724;2024-01-07T06:29:33;1.20;99.90
3488;DHT22;38546;48.170;11.724;2024-01-07T06:32:22;1.30;99.90
3488;DHT22;38546;48.170;11.724;2024-01-07T06:35:14;1.20;99.90
3488;DHT22;38546;48.170;11.724;2024-01-07T06:38:04;1.20;99.90
3488;DHT22;38546;48.170;11.724;2024-01-07T06:40:53;1.20;99.90
3488;DHT22;38546;48.170;11.724;2024-01-07T06:43:49;1.20;99.90
3488;DHT22;38546;48.170;11.724;2024-01-07T06:46:38;1.20;99.90
3488;DHT22;38546;48.170;11.724;2024-01-07T06:49:30;1.00;99.90
3488;DHT22;38546;48.170;11.724;2024-01-07T06:52:20;1.10;99.90
3488;DHT22;38546;48.170;11.724;2024-01-07T06:55:10;1.20;99.90
3488;DHT22;38546;48.170;11.724;2024-01-07T06:57:59;1.10;99.90
3488;DHT22;38546;48.170;11.724;2024-01-07T07:00:48;1.10;99.90
3488;DHT22;38546;48.170;11.724;2024-01-07T07:03:37;1.10;99.90
3488;DHT22;38546;48.170;11.724;2024-01-07T07:06:26;1.20;99.90
3488;DHT22;38546;48.170;11.724;2024-01-07T07:09:15;1.20;99.90
3488;DHT22;38546;48.170;11.724;2024-01-07T07:12:06;1.20;99.90
3488;DHT22;38546;48.170;11.724;2024-01-07T07:14:56;1.10;99.90
3488;DHT22;38546;48.170;11.724;2024-01-07T07:17:45;1.10;99.90
3488;DHT22;38546;48.170;11.724;2024-01-07T07:20:34;1.10;99.90
3488;DHT22;38546;48.170;11.724;2024-01-07T07:23:23;1.10;99.90
3488;DHT22;38546;48.170;11.724;2024-01-07T07:26:12;1.20;99.90
3488;DHT22;38546;48.170;11.724;2024-01-07T07:29:01;1.20;99.90
3488;DHT22;38546;48.170;11.724;2024-01-07T07:31:51;1.20;99.90
3488;DHT22;38546;48.170;11.724;2024-01-07T07:34:40;1.10;99.90
3488;DHT22;38546;48.170;11.724;2024-01-07T07:37:29;1.10;99.90
3488;DHT22;38546;48.170;11.724;2024-01-07T07:40:18;1.20;99.90
3488;DHT22;38546;48.170;11.724;2024-01-07T07:43:08;1.30;99.90
3488;DHT22;38546;48.170;11.724;2024-01-07T07:45:57;1.20;99.90
3488;DHT22;38546;48.170;11.724;2024-01-07T07:48:46;1.10;99.90
3488;DHT22;38546;48.170;11.724;2024-01-07T07:51:36;1.20;99.90
3488;DHT22;38546;48.170;11.724;2024-01-07T07:54:25;1.20;99.90
3488;DHT22;38546;48.170;11.724;2024-01-07T07:57:15;1.30;99.90
3488;DHT22;38546;48.170;11.724;2024-01-07T08:00:06;1.30;99.90
3488;DHT22;38546;48.170;11.724;2024-01-07T08:02:55;1.50;99.90
3488;DHT22;38546;48.170;11.724;2024-01-07T08:05:44;1.40;99.90
3488;DHT22;38546;48.170;11.724;2024-01-07T08:08:34;1.60;99.90
3488;DHT22;38546;48.170;11.724;2024-01-07T08:11:24;1.70;99.90
3488;DHT22;38546;48.170;11.724;2024-01-07T08:14:14;1.40;99.90
3488;DHT22;38546;48.170;11.724;2024-01-07T08:17:03;1.40;99.90
3488;DHT22;38546;48.170;11.724;2024-01-07T08:19:53;1.30;99.90
3488;DHT22;38546;48.170;11.724;2024-01-07T08:22:43;1.30;99.90
3488;DHT22;38546;48.170;11.724;2024-01-07T08:25:32;1.30;99.90
3488;DHT22;38546;48.170;11.724;2024-01-07T08:28:21;1.40;99.90
3488;DHT22;38546;48.170;11.724;2024-01-07T08:31:10;1.40;99.90
3488;DHT22;38546;48.170;11.724;2024-01-07T08:34:00;1.50;99.90
3488;DHT22;38546;48.170;11.724;2024-01-07T08:36:49;1.40;99.90
3488;DHT22;38546;48.170;11.724;2024-01-07T08:39:39;1.30;99.90
3488;DHT22;38546;48.170;11.724;2024-01-07T08:42:28;1.30;99.90
3488;DHT22;38546;48.170;11.724;2024-01-07T08:45:19;1.40;99.90
3488;DHT22;38546;48.170;11.724;2024-01-07T08:48:09;1.40;99.90
3488;DHT22;38546;48.170;11.724;2024-01-07T08:50:58;1.30;99.90
3488;DHT22;38546;48.170;11.724;2024-01-07T08:53:48;1.20;99.90
3488;DHT22;38546;48.170;11.724;2024-01-07T08:56:38;1.20;99.90
3488;DHT22;38546;48.170;11.724;2024-01-07T08:59:28;1.20;99.90
3488;DHT22;38546;48.170;11.724;2024-01-07T09:02:18;1.40;99.90
3488;DHT22;38546;48.170;11.724;2024-01-07T09:05:07;1.40;99.90
3488;DHT22;38546;48.170;11.724;2024-01-07T09:07:57;1.30;99.90
3488;DHT22;38546;48.170;11.724;2024-01-07T09:10:47;1.40;99.90
3488;DHT22;38546;48.170;11.724;2024-01-07T09:13:36;1.20;99.90
3488;DHT22;38546;48.170;11.724;2024-01-07T09:16:26;1.30;99.90
3488;DHT22;38546;48.170;11.724;2024-01-07T09:19:16;1.20;99.90
3488;DHT22;38546;48.170;11.724;2024-01-07T09:22:06;1.30;99.90
3488;DHT22;38546;48.170;11.724;2024-01-07T09:24:55;1.20;99.90
3488;DHT22;38546;48.170;11.724;2024-01-07T09:27:45;1.30;99.90
3488;DHT22;38546;48.170;11.724;2024-01-07T09:30:34;1.30;99.90
3488;DHT22;38546;48.170;11.724;2024-01-07T09:33:23;1.40;99.90
3488;DHT22;38546;48.170;11.724;2024-01-07T09:36:13;1.30;99.90
3488;DHT22;38546;48.170;11.724;2024-01-07T09:39:02;1.20;99.90
3488;DHT22;38546;48.170;11.724;2024-01-07T09:41:54;1.40;99.90
3488;DHT22;38546;48.170;11.724;2024-01-07T09:44:44;1.20;99.90
3488;DHT22;38546;48.170;11.724;2024-01-07T09:47:35;1.30;99.90
3488;DHT22;38546;48.170;11.724;2024-01-07T09:50:24;1.30;99.90
3488;DHT22;38546;48.170;11.724;2024-01-07T09:53:16;1.30;99.90
3488;DHT22;38546;48.170;11.724;2024-01-07T09:56:20;1.60;99.90
3488;DHT22;38546;48.170;11.724;2024-01-07T09:59:14;1.60;99.90
3488;DHT22;38546;48.170;11.724;2024-01-07T10:02:04;1.60;99.90
3488;DHT22;38546;48.170;11.724;2024-01-07T10:04:54;1.50;99.90
3488;DHT22;38546;48.170;11.724;2024-01-07T10:07:43;1.50;99.90
3488;DHT22;38546;48.170;11.724;2024-01-07T10:10:33;1.50;99.90
3488;DHT22;38546;48.170;11.724;2024-01-07T10:13:24;1.50;99.90
3488;DHT22;38546;48.170;11.724;2024-01-07T10:16:13;1.40;99.90
3488;DHT22;38546;48.170;11.724;2024-01-07T10:19:03;1.50;99.90
3488;DHT22;38546;48.170;11.724;2024-01-07T10:22:00;1.50;99.90
3488;DHT22;38546;48.170;11.724;2024-01-07T10:24:52;1.40;99.90
3488;DHT22;38546;48.170;11.724;2024-01-07T10:27:41;1.40;99.90
3488;DHT22;38546;48.170;11.724;2024-01-07T10:30:31;1.50;99.90
3488;DHT22;38546;48.170;11.724;2024-01-07T10:33:21;1.50;99.90
3488;DHT22;38546;48.170;11.724;2024-01-07T10:36:12;1.50;99.90
3488;DHT22;38546;48.170;11.724;2024-01-07T10:39:01;1.50;99.90
3488;DHT22;38546;48.170;11.724;2024-01-07T10:41:52;1.40;99.90
3488;DHT22;38546;48.170;11.724;2024-01-07T10:44:46;1.40;99.90
3488;DHT22;38546;48.170;11.724;2024-01-07T10:47:36;1.60;99.90
3488;DHT22;38546;48.170;11.724;2024-01-07T10:50:27;1.60;99.90
3488;DHT22;38546;48.170;11.724;2024-01-07T10:53:21;1.60;99.90
3488;DHT22;38546;48.170;11.724;2024-01-07T10:56:12;1.60;99.90
3488;DHT22;38546;48.170;11.724;2024-01-07T10:59:03;1.50;99.90
3488;DHT22;38546;48.170;11.724;2024-01-07T11:01:53;1.60;99.90
3488;DHT22;38546;48.170;11.724;2024-01-07T11:04:56;1.60;99.90
3488;DHT22;38546;48.170;11.724;2024-01-07T11:08:08;1.40;99.90
3488;DHT22;38546;48.170;11.724;2024-01-07T11:11:09;1.40;99.90
3488;DHT22;38546;48.170;11.724;2024-01-07T11:14:04;1.30;99.90
3488;DHT22;38546;48.170;11.724;2024-01-07T11:16:53;1.40;99.90
3488;DHT22;38546;48.170;11.724;2024-01-07T11:19:50;1.40;99.90
3488;DHT22;38546;48.170;11.724;2024-01-07T11:22:42;1.40;99.90
3488;DHT22;38546;48.170;11.724;2024-01-07T11:25:32;1.50;99.90
3488;DHT22;38546;48.170;11.724;2024-01-07T11:28:52;1.30;99.90
3488;DHT22;38546;48.170;11.724;2024-01-07T11:31:46;1.50;99.90
3488;DHT22;38546;48.170;11.724;2024-01-07T11:34:43;1.40;99.90
3488;DHT22;38546;48.170;11.724;2024-01-07T11:37:32;1.30;99.90
3488;DHT22;38546;48.170;11.724;2024-01-07T11:40:21;1.40;99.90
3488;DHT22;38546;48.170;11.724;2024-01-07T11:43:10;1.40;99.90
3488;DHT22;38546;48.170;11.724;2024-01-07T11:46:00;1.30;99.90
3488;DHT22;38546;48.170;11.724;2024-01-07T11:48:53;1.40;99.90
3488;DHT22;38546;48.170;11.724;2024-01-07T11:51:47;1.20;99.90
3488;DHT22;38546;48.170;11.724;2024-01-07T11:54:41;1.20;99.90
3488;DHT22;38546;48.170;11.724;2024-01-07T11:57:31;1.00;99.90
3488;DHT22;38546;48.170;11.724;2024-01-07T12:00:21;1.00;99.90
3488;DHT22;38546;48.170;11.724;2024-01-07T12:03:11;0.80;99.90
3488;DHT22;38546;48.170;11.724;2024-01-07T12:06:01;0.90;99.90
3488;DHT22;38546;48.170;11.724;2024-01-07T12:08:52;0.80;99.90
3488;DHT22;38546;48.170;11.724;2024-01-07T12:11:41;0.70;99.90
3488;DHT22;38546;48.170;11.724;2024-01-07T12:14:31;0.70;99.90
3488;DHT22;38546;48.170;11.724;2024-01-07T12:17:21;1.00;99.90
3488;DHT22;38546;48.170;11.724;2024-01-07T12:20:10;0.70;99.90
3488;DHT22;38546;48.170;11.724;2024-01-07T12:23:09;0.90;99.90
3488;DHT22;38546;48.170;11.724;2024-01-07T12:26:10;1.00;99.90
3488;DHT22;38546;48.170;11.724;2024-01-07T12:29:00;0.90;99.90
3488;DHT22;38546;48.170;11.724;2024-01-07T12:31:53;1.10;99.90
3488;DHT22;38546;48.170;11.724;2024-01-07T12:34:42;1.20;99.90
3488;DHT22;38546;48.170;11.724;2024-01-07T12:37:32;1.00;99.90
3488;DHT22;38546;48.170;11.724;2024-01-07T12:40:21;0.90;99.90
3488;DHT22;38546;48.170;11.724;2024-01-07T12:43:13;0.80;99.90
3488;DHT22;38546;48.170;11.724;2024-01-07T12:46:03;0.80;99.90
3488;DHT22;38546;48.170;11.724;2024-01-07T12:48:54;1.20;99.90
3488;DHT22;38546;48.170;11.724;2024-01-07T12:51:43;1.00;99.90
3488;DHT22;38546;48.170;11.724;2024-01-07T12:54:32;0.80;99.90
3488;DHT22;38546;48.170;11.724;2024-01-07T12:57:23;1.20;99.90
3488;DHT22;38546;48.170;11.724;2024-01-07T13:00:13;1.20;99.90
3488;DHT22;38546;48.170;11.724;2024-01-07T13:03:03;1.30;99.90
3488;DHT22;38546;48.170;11.724;2024-01-07T13:05:54;1.10;99.90
3488;DHT22;38546;48.170;11.724;2024-01-07T13:08:43;1.10;99.90
3488;DHT22;38546;48.170;11.724;2024-01-07T13:11:32;1.10;99.90
3488;DHT22;38546;48.170;11.724;2024-01-07T13:14:22;1.00;99.90
3488;DHT22;38546;48.170;11.724;2024-01-07T13:17:11;0.90;99.90
3488;DHT22;38546;48.170;11.724;2024-01-07T13:20:00;1.10;99.90
3488;DHT22;38546;48.170;11.724;2024-01-07T13:22:50;1.00;99.90
3488;DHT22;38546;48.170;11.724;2024-01-07T13:25:39;1.00;99.90
3488;DHT22;38546;48.170;11.724;2024-01-07T13:28:29;0.90;99.90
3488;DHT22;38546;48.170;11.724;2024-01-07T13:31:18;1.00;99.90
3488;DHT22;38546;48.170;11.724;2024-01-07T13:34:08;0.90;99.90
3488;DHT22;38546;48.170;11.724;2024-01-07T13:36:57;0.80;99.90
3488;DHT22;38546;48.170;11.724;2024-01-07T13:39:47;0.80;99.90
3488;DHT22;38546;48.170;11.724;2024-01-07T13:42:38;0.90;99.90
3488;DHT22;38546;48.170;11.724;2024-01-07T13:45:28;0.80;99.90
3488;DHT22;38546;48.170;11.724;2024-01-07T13:48:17;0.80;99.90
3488;DHT22;38546;48.170;11.724;2024-01-07T13:51:06;0.90;99.90
3488;DHT22;38546;48.170;11.724;2024-01-07T13:53:55;0.90;99.90
3488;DHT22;38546;48.170;11.724;2024-01-07T13:56:45;0.80;99.90
3488;DHT22;38546;48.170;11.724;2024-01-07T13:59:34;0.80;99.90
3488;DHT22;38546;48.170;11.724;2024-01-07T14:02:24;0.80;99.90
3488;DHT22;38546;48.170;11.724;2024-01-07T14:05:14;0.70;99.90
3488;DHT22;38546;48.170;11.724;2024-01-07T14:08:04;0.60;99.90
3488;DHT22;38546;48.170;11.724;2024-01-07T14:10:55;0.50;99.90
3488;DHT22;38546;48.170;11.724;2024-01-07T14:13:45;0.70;99.90
3488;DHT22;38546;48.170;11.724;2024-01-07T14:16:35;0.80;99.90
3488;DHT22;38546;48.170;11.724;2024-01-07T14:19:25;0.70;99.90
3488;DHT22;38546;48.170;11.724;2024-01-07T14:22:14;0.70;99.90
3488;DHT22;38546;48.170;11.724;2024-01-07T14:25:05;0.70;99.90
3488;DHT22;38546;48.170;11.724;2024-01-07T14:27:55;0.50;99.90
3488;DHT22;38546;48.170;11.724;2024-01-07T14:30:44;0.60;99.90
3488;DHT22;38546;48.170;11.724;2024-01-07T14:33:34;0.60;99.90
3488;DHT22;38546;48.170;11.724;2024-01-07T14:36:24;0.60;99.90
3488;DHT22;38546;48.170;11.724;2024-01-07T14:39:13;0.60;99.90
3488;DHT22;38546;48.170;11.724;2024-01-07T14:42:04;0.60;99.90
3488;DHT22;38546;48.170;11.724;2024-01-07T14:44:53;0.60;99.90
3488;DHT22;38546;48.170;11.724;2024-01-07T14:47:42;0.70;99.90
3488;DHT22;38546;48.170;11.724;2024-01-07T14:50:31;0.50;99.90
3488;DHT22;38546;48.170;11.724;2024-01-07T14:53:20;0.50;99.90
3488;DHT22;38546;48.170;11.724;2024-01-07T14:56:10;0.40;99.90
3488;DHT22;38546;48.170;11.724;2024-01-07T14:58:59;0.60;99.90
3488;DHT22;38546;48.170;11.724;2024-01-07T15:01:49;0.50;99.90
3488;DHT22;38546;48.170;11.724;2024-01-07T15:04:39;0.50;99.90
3488;DHT22;38546;48.170;11.724;2024-01-07T15:07:29;0.40;99.90
3488;DHT22;38546;48.170;11.724;2024-01-07T15:10:18;0.40;99.90
3488;DHT22;38546;48.170;11.724;2024-01-07T15:13:08;0.60;99.90
3488;DHT22;38546;48.170;11.724;2024-01-07T15:15:59;0.60;99.90
3488;DHT22;38546;48.170;11.724;2024-01-07T15:18:48;0.60;99.90
3488;DHT22;38546;48.170;11.724;2024-01-07T15:21:37;0.50;99.90
3488;DHT22;38546;48.170;11.724;2024-01-07T15:24:27;0.50;99.90
3488;DHT22;38546;48.170;11.724;2024-01-07T15:27:16;0.40;99.90
3488;DHT22;38546;48.170;11.724;2024-01-07T15:30:06;0.40;99.90
3488;DHT22;38546;48.170;11.724;2024-01-07T15:32:56;0.60;99.90
3488;DHT22;38546;48.170;11.724;2024-01-07T15:35:45;0.60;99.90
3488;DHT22;38546;48.170;11.724;2024-01-07T15:38:34;0.40;99.90
3488;DHT22;38546;48.170;11.724;2024-01-07T15:41:23;0.60;99.90
3488;DHT22;38546;48.170;11.724;2024-01-07T15:44:12;0.50;99.90
3488;DHT22;38546;48.170;11.724;2024-01-07T15:47:01;0.40;99.90
3488;DHT22;38546;48.170;11.724;2024-01-07T15:49:52;0.30;99.90
3488;DHT22;38546;48.170;11.724;2024-01-07T15:52:42;0.40;99.90
3488;DHT22;38546;48.170;11.724;2024-01-07T15:55:35;0.30;99.90
3488;DHT22;38546;48.170;11.724;2024-01-07T15:58:24;0.10;99.90
3488;DHT22;38546;48.170;11.724;2024-01-07T16:01:19;0.10;99.90
3488;DHT22;38546;48.170;11.724;2024-01-07T16:04:09;0.20;99.90
3488;DHT22;38546;48.170;11.724;2024-01-07T16:06:59;0.40;99.90
3488;DHT22;38546;48.170;11.724;2024-01-07T16:09:49;0.10;99.90
3488;DHT22;38546;48.170;11.724;2024-01-07T16:12:38;0.10;99.90
3488;DHT22;38546;48.170;11.724;2024-01-07T16:15:27;0.00;99.90
3488;DHT22;38546;48.170;11.724;2024-01-07T16:18:16;0.20;99.90
3488;DHT22;38546;48.170;11.724;2024-01-07T16:21:05;0.10;99.90
3488;DHT22;38546;48.170;11.724;2024-01-07T16:23:55;0.00;99.90
3488;DHT22;38546;48.170;11.724;2024-01-07T16:26:44;-0.10;99.90
3488;DHT22;38546;48.170;11.724;2024-01-07T16:29:34;0.20;99.90
3488;DHT22;38546;48.170;11.724;2024-01-07T16:32:24;0.00;99.90
3488;DHT22;38546;48.170;11.724;2024-01-07T16:35:12;-0.10;99.90
3488;DHT22;38546;48.170;11.724;2024-01-07T16:38:02;0.00;99.90
3488;DHT22;38546;48.170;11.724;2024-01-07T16:40:52;-0.20;99.90
3488;DHT22;38546;48.170;11.724;2024-01-07T16:43:41;-0.20;99.90
3488;DHT22;38546;48.170;11.724;2024-01-07T16:46:29;-0.30;99.90
3488;DHT22;38546;48.170;11.724;2024-01-07T16:49:18;-0.10;99.90
3488;DHT22;38546;48.170;11.724;2024-01-07T16:52:08;-0.20;99.90
3488;DHT22;38546;48.170;11.724;2024-01-07T16:54:57;0.10;99.90
3488;DHT22;38546;48.170;11.724;2024-01-07T16:57:46;-0.20;99.90
3488;DHT22;38546;48.170;11.724;2024-01-07T17:00:35;-0.30;99.90
3488;DHT22;38546;48.170;11.724;2024-01-07T17:03:24;0.00;99.90
3488;DHT22;38546;48.170;11.724;2024-01-07T17:06:14;-0.10;99.90
3488;DHT22;38546;48.170;11.724;2024-01-07T17:09:03;-0.30;99.90
3488;DHT22;38546;48.170;11.724;2024-01-07T17:11:52;-0.30;99.90
3488;DHT22;38546;48.170;11.724;2024-01-07T17:14:41;-0.30;99.90
3488;DHT22;38546;48.170;11.724;2024-01-07T17:17:31;-0.30;99.90
3488;DHT22;38546;48.170;11.724;2024-01-07T17:20:20;-0.30;99.90
3488;DHT22;38546;48.170;11.724;2024-01-07T17:23:10;-0.40;99.90
3488;DHT22;38546;48.170;11.724;2024-01-07T17:25:58;0.00;99.90
3488;DHT22;38546;48.170;11.724;2024-01-07T17:28:47;-0.20;99.90
3488;DHT22;38546;48.170;11.724;2024-01-07T17:31:36;-0.30;99.90
3488;DHT22;38546;48.170;11.724;2024-01-07T17:34:25;-0.20;99.90
3488;DHT22;38546;48.170;11.724;2024-01-07T17:37:14;-0.30;99.90
3488;DHT22;38546;48.170;11.724;2024-01-07T17:40:04;-0.30;99.90
3488;DHT22;38546;48.170;11.724;2024-01-07T17:42:54;-0.40;99.90
3488;DHT22;38546;48.170;11.724;2024-01-07T17:45:43;-0.30;99.90
3488;DHT22;38546;48.170;11.724;2024-01-07T17:48:32;0.00;99.90
3488;DHT22;38546;48.170;11.724;2024-01-07T17:51:21;-0.20;99.90
3488;DHT22;38546;48.170;11.724;2024-01-07T17:54:11;-0.40;99.90
3488;DHT22;38546;48.170;11.724;2024-01-07T17:57:00;-0.10;99.90
3488;DHT22;38546;48.170;11.724;2024-01-07T17:59:50;-0.30;99.90
3488;DHT22;38546;48.170;11.724;2024-01-07T18:02:39;-0.20;99.90
3488;DHT22;38546;48.170;11.724;2024-01-07T18:05:27;-0.40;99.90
3488;DHT22;38546;48.170;11.724;2024-01-07T18:08:17;-0.30;99.90
3488;DHT22;38546;48.170;11.724;2024-01-07T18:11:06;-0.30;99.90